sensor_id;sensor_type;location;lat;lon;timestamp;temperature;humidity
38428;DHT22;24211;49.980;19.776;2022-10-31T00:01:23;12.30;99.90
38428;DHT22;24211;49.980;19.776;2022-10-31T00:03:50;12.30;99.90
38428;DHT22;24211;49.980;19.776;2022-10-31T00:06:17;12.30;99.90
38428;DHT22;24211;49.980;19.776;2022-10-31T00:08:46;12.20;99.90
38428;DHT22;24211;49.980;19.776;2022-10-31T00:11:14;12.20;99.90
38428;DHT22;24211;49.980;19.776;2022-10-31T00:13:41;12.20;99.90
38428;DHT22;24211;49.980;19.776;2022-10-31T00:16:24;12.20;99.90
38428;DHT22;24211;49.980;19.776;2022-10-31T00:18:55;12.20;99.90
38428;DHT22;24211;49.980;19.776;2022-10-31T00:21:25;12.10;99.90
38428;DHT22;24211;49.980;19.776;2022-10-31T00:23:52;12.00;99.90
38428;DHT22;24211;49.980;19.776;2022-10-31T00:26:20;12.00;99.90
38428;DHT22;24211;49.980;19.776;2022-10-31T00:28:47;12.00;99.90
38428;DHT22;24211;49.980;19.776;2022-10-31T00:31:15;12.00;99.90
38428;DHT22;24211;49.980;19.776;2022-10-31T00:33:43;12.00;99.90
38428;DHT22;24211;49.980;19.776;2022-10-31T00:36:13;11.90;99.90
38428;DHT22;24211;49.980;19.776;2022-10-31T00:38:43;11.90;99.90
38428;DHT22;24211;49.980;19.776;2022-10-31T00:41:11;11.90;99.90
38428;DHT22;24211;49.980;19.776;2022-10-31T00:43:41;11.90;99.90
38428;DHT22;24211;49.980;19.776;2022-10-31T00:46:10;11.80;99.90
38428;DHT22;24211;49.980;19.776;2022-10-31T00:48:38;11.80;99.90
38428;DHT22;24211;49.980;19.776;2022-10-31T00:51:06;11.80;99.90
38428;DHT22;24211;49.980;19.776;2022-10-31T00:53:34;11.80;99.90
38428;DHT22;24211;49.980;19.776;2022-10-31T00:56:02;11.70;99.90
38428;DHT22;24211;49.980;19.776;2022-10-31T00:58:30;11.70;99.90
38428;DHT22;24211;49.980;19.776;2022-10-31T01:04:37;11.70;99.90
38428;DHT22;24211;49.980;19.776;2022-10-31T01:07:04;11.60;99.90
38428;DHT22;24211;49.980;19.776;2022-10-31T01:09:31;11.60;99.90
38428;DHT22;24211;49.980;19.776;2022-10-31T01:11:59;11.50;99.90
38428;DHT22;24211;49.980;19.776;2022-10-31T01:14:26;11.50;99.90
38428;DHT22;24211;49.980;19.776;2022-10-31T01:16:56;11.50;99.90
38428;DHT22;24211;49.980;19.776;2022-10-31T01:19:23;11.40;99.90
38428;DHT22;24211;49.980;19.776;2022-10-31T01:21:55;11.40;99.90
38428;DHT22;24211;49.980;19.776;2022-10-31T01:24:22;11.40;99.90
38428;DHT22;24211;49.980;19.776;2022-10-31T01:26:49;11.40;99.90
38428;DHT22;24211;49.980;19.776;2022-10-31T01:29:16;11.30;99.90
38428;DHT22;24211;49.980;19.776;2022-10-31T01:31:44;11.30;99.90
38428;DHT22;24211;49.980;19.776;2022-10-31T01:34:13;11.30;99.90
38428;DHT22;24211;49.980;19.776;2022-10-31T01:36:42;11.20;99.90
38428;DHT22;24211;49.980;19.776;2022-10-31T01:39:14;11.20;99.90
38428;DHT22;24211;49.980;19.776;2022-10-31T01:41:44;11.20;99.90
38428;DHT22;24211;49.980;19.776;2022-10-31T01:46:58;11.10;99.90
38428;DHT22;24211;49.980;19.776;2022-10-31T01:49:38;11.10;99.90
38428;DHT22;24211;49.980;19.776;2022-10-31T01:55:12;11.10;99.90
38428;DHT22;24211;49.980;19.776;2022-10-31T01:57:46;11.00;99.90
38428;DHT22;24211;49.980;19.776;2022-10-31T02:00:19;11.00;99.90
38428;DHT22;24211;49.980;19.776;2022-10-31T02:02:49;11.00;99.90
38428;DHT22;24211;49.980;19.776;2022-10-31T02:05:20;11.00;99.90
38428;DHT22;24211;49.980;19.776;2022-10-31T02:07:54;11.00;99.90
38428;DHT22;24211;49.980;19.776;2022-10-31T02:10:30;10.90;99.90
38428;DHT22;24211;49.980;19.776;2022-10-31T02:13:03;10.90;99.90
38428;DHT22;24211;49.980;19.776;2022-10-31T02:15:37;10.90;99.90
38428;DHT22;24211;49.980;19.776;2022-10-31T02:18:07;10.90;99.90
38428;DHT22;24211;49.980;19.776;2022-10-31T02:41:09;10.70;99.90
38428;DHT22;24211;49.980;19.776;2022-10-31T02:44:15;10.70;99.90
38428;DHT22;24211;49.980;19.776;2022-10-31T02:46:54;10.70;99.90
38428;DHT22;24211;49.980;19.776;2022-10-31T02:49:48;10.70;99.90
38428;DHT22;24211;49.980;19.776;2022-10-31T02:52:25;10.70;99.90
38428;DHT22;24211;49.980;19.776;2022-10-31T02:58:10;10.70;99.90
38428;DHT22;24211;49.980;19.776;2022-10-31T03:03:33;10.60;99.90
38428;DHT22;24211;49.980;19.776;2022-10-31T03:06:20;10.70;99.90
38428;DHT22;24211;49.980;19.776;2022-10-31T03:09:18;10.70;99.90
38428;DHT22;24211;49.980;19.776;2022-10-31T03:12:04;10.70;99.90
38428;DHT22;24211;49.980;19.776;2022-10-31T03:14:41;10.60;99.90
38428;DHT22;24211;49.980;19.776;2022-10-31T03:17:26;10.60;99.90
38428;DHT22;24211;49.980;19.776;2022-10-31T03:20:03;10.60;99.90
38428;DHT22;24211;49.980;19.776;2022-10-31T03:22:37;10.60;99.90
38428;DHT22;24211;49.980;19.776;2022-10-31T03:25:08;10.60;99.90
38428;DHT22;24211;49.980;19.776;2022-10-31T03:27:37;10.60;99.90
38428;DHT22;24211;49.980;19.776;2022-10-31T03:30:08;10.60;99.90
38428;DHT22;24211;49.980;19.776;2022-10-31T03:32:53;10.60;99.90
38428;DHT22;24211;49.980;19.776;2022-10-31T03:35:24;10.60;99.90
38428;DHT22;24211;49.980;19.776;2022-10-31T03:37:54;10.60;99.90
38428;DHT22;24211;49.980;19.776;2022-10-31T03:40:36;10.60;99.90
38428;DHT22;24211;49.980;19.776;2022-10-31T03:43:09;10.60;99.90
38428;DHT22;24211;49.980;19.776;2022-10-31T03:45:45;10.60;99.90
38428;DHT22;24211;49.980;19.776;2022-10-31T03:48:16;10.60;99.90
38428;DHT22;24211;49.980;19.776;2022-10-31T03:51:14;10.50;99.90
38428;DHT22;24211;49.980;19.776;2022-10-31T03:54:08;10.50;99.90
38428;DHT22;24211;49.980;19.776;2022-10-31T03:56:50;10.50;99.90
38428;DHT22;24211;49.980;19.776;2022-10-31T03:59:35;10.50;99.90
38428;DHT22;24211;49.980;19.776;2022-10-31T04:02:14;10.50;99.90
38428;DHT22;24211;49.980;19.776;2022-10-31T04:04:44;10.50;99.90
38428;DHT22;24211;49.980;19.776;2022-10-31T04:07:15;10.40;99.90
38428;DHT22;24211;49.980;19.776;2022-10-31T04:09:50;10.40;99.90
38428;DHT22;24211;49.980;19.776;2022-10-31T04:12:21;10.40;99.90
38428;DHT22;24211;49.980;19.776;2022-10-31T04:15:01;10.30;99.90
38428;DHT22;24211;49.980;19.776;2022-10-31T04:17:36;10.30;99.90
38428;DHT22;24211;49.980;19.776;2022-10-31T04:20:08;10.30;99.90
38428;DHT22;24211;49.980;19.776;2022-10-31T04:22:36;10.30;99.90
38428;DHT22;24211;49.980;19.776;2022-10-31T04:25:03;10.30;99.90
38428;DHT22;24211;49.980;19.776;2022-10-31T04:27:30;10.30;99.90
38428;DHT22;24211;49.980;19.776;2022-10-31T04:29:57;10.30;99.90
38428;DHT22;24211;49.980;19.776;2022-10-31T04:32:26;10.20;99.90
38428;DHT22;24211;49.980;19.776;2022-10-31T04:34:54;10.20;99.90
38428;DHT22;24211;49.980;19.776;2022-10-31T04:37:21;10.20;99.90
38428;DHT22;24211;49.980;19.776;2022-10-31T04:39:49;10.10;99.90
38428;DHT22;24211;49.980;19.776;2022-10-31T04:42:40;10.10;99.90
38428;DHT22;24211;49.980;19.776;2022-10-31T04:45:08;10.10;99.90
38428;DHT22;24211;49.980;19.776;2022-10-31T04:47:36;10.10;99.90
38428;DHT22;24211;49.980;19.776;2022-10-31T04:50:03;10.00;99.90
38428;DHT22;24211;49.980;19.776;2022-10-31T04:52:38;10.00;99.90
38428;DHT22;24211;49.980;19.776;2022-10-31T04:55:06;10.00;99.90
38428;DHT22;24211;49.980;19.776;2022-10-31T04:57:45;10.00;99.90
38428;DHT22;24211;49.980;19.776;2022-10-31T05:00:17;10.00;99.90
38428;DHT22;24211;49.980;19.776;2022-10-31T05:02:50;10.00;99.90
38428;DHT22;24211;49.980;19.776;2022-10-31T05:05:21;9.90;99.90
38428;DHT22;24211;49.980;19.776;2022-10-31T05:07:52;9.90;99.90
38428;DHT22;24211;49.980;19.776;2022-10-31T05:10:28;9.90;99.90
38428;DHT22;24211;49.980;19.776;2022-10-31T05:13:01;9.80;99.90
38428;DHT22;24211;49.980;19.776;2022-10-31T05:15:53;9.80;99.90
38428;DHT22;24211;49.980;19.776;2022-10-31T05:18:53;9.80;99.90
38428;DHT22;24211;49.980;19.776;2022-10-31T05:21:38;9.80;99.90
38428;DHT22;24211;49.980;19.776;2022-10-31T05:24:07;9.80;99.90
38428;DHT22;24211;49.980;19.776;2022-10-31T05:26:35;9.80;99.90
38428;DHT22;24211;49.980;19.776;2022-10-31T05:29:02;9.70;99.90
38428;DHT22;24211;49.980;19.776;2022-10-31T05:31:29;9.70;99.90
38428;DHT22;24211;49.980;19.776;2022-10-31T05:33:57;9.70;99.90
38428;DHT22;24211;49.980;19.776;2022-10-31T05:36:47;9.70;99.90
38428;DHT22;24211;49.980;19.776;2022-10-31T05:39:16;9.70;99.90
38428;DHT22;24211;49.980;19.776;2022-10-31T05:41:47;9.60;99.90
38428;DHT22;24211;49.980;19.776;2022-10-31T05:44:19;9.70;99.90
38428;DHT22;24211;49.980;19.776;2022-10-31T05:46:56;9.60;99.90
38428;DHT22;24211;49.980;19.776;2022-10-31T05:49:42;9.60;99.90
38428;DHT22;24211;49.980;19.776;2022-10-31T05:52:28;9.60;99.90
38428;DHT22;24211;49.980;19.776;2022-10-31T05:55:03;9.60;99.90
38428;DHT22;24211;49.980;19.776;2022-10-31T05:57:32;9.60;99.90
38428;DHT22;24211;49.980;19.776;2022-10-31T06:00:00;9.60;99.90
38428;DHT22;24211;49.980;19.776;2022-10-31T06:02:34;9.50;99.90
38428;DHT22;24211;49.980;19.776;2022-10-31T06:05:20;9.60;99.90
38428;DHT22;24211;49.980;19.776;2022-10-31T06:07:47;9.50;99.90
38428;DHT22;24211;49.980;19.776;2022-10-31T06:10:15;9.50;99.90
38428;DHT22;24211;49.980;19.776;2022-10-31T06:12:44;9.50;99.90
38428;DHT22;24211;49.980;19.776;2022-10-31T06:15:17;9.60;99.90
38428;DHT22;24211;49.980;19.776;2022-10-31T06:18:03;9.60;99.90
38428;DHT22;24211;49.980;19.776;2022-10-31T06:20:35;9.60;99.90
38428;DHT22;24211;49.980;19.776;2022-10-31T06:23:04;9.60;99.90
38428;DHT22;24211;49.980;19.776;2022-10-31T06:25:33;9.60;99.90
38428;DHT22;24211;49.980;19.776;2022-10-31T06:28:00;9.70;99.90
38428;DHT22;24211;49.980;19.776;2022-10-31T06:30:36;9.70;99.90
38428;DHT22;24211;49.980;19.776;2022-10-31T06:33:04;9.70;99.90
38428;DHT22;24211;49.980;19.776;2022-10-31T06:35:35;9.70;99.90
38428;DHT22;24211;49.980;19.776;2022-10-31T06:38:02;9.80;99.90
38428;DHT22;24211;49.980;19.776;2022-10-31T06:40:38;9.80;99.90
38428;DHT22;24211;49.980;19.776;2022-10-31T06:43:19;9.90;99.90
38428;DHT22;24211;49.980;19.776;2022-10-31T06:45:47;9.90;99.90
38428;DHT22;24211;49.980;19.776;2022-10-31T06:48:27;10.00;99.90
38428;DHT22;24211;49.980;19.776;2022-10-31T06:51:19;10.10;99.90
38428;DHT22;24211;49.980;19.776;2022-10-31T06:53:49;10.20;99.90
38428;DHT22;24211;49.980;19.776;2022-10-31T06:56:17;10.30;99.90
38428;DHT22;24211;49.980;19.776;2022-10-31T06:58:48;10.30;99.90
38428;DHT22;24211;49.980;19.776;2022-10-31T07:01:20;10.40;99.90
38428;DHT22;24211;49.980;19.776;2022-10-31T07:03:48;10.40;99.90
38428;DHT22;24211;49.980;19.776;2022-10-31T07:06:15;10.50;99.90
38428;DHT22;24211;49.980;19.776;2022-10-31T07:08:42;10.60;99.90
38428;DHT22;24211;49.980;19.776;2022-10-31T07:11:09;10.70;99.90
38428;DHT22;24211;49.980;19.776;2022-10-31T07:13:38;10.80;99.90
38428;DHT22;24211;49.980;19.776;2022-10-31T07:16:07;10.80;99.90
38428;DHT22;24211;49.980;19.776;2022-10-31T07:18:37;10.90;99.90
38428;DHT22;24211;49.980;19.776;2022-10-31T07:21:05;11.00;99.90
38428;DHT22;24211;49.980;19.776;2022-10-31T07:23:32;11.10;99.90
38428;DHT22;24211;49.980;19.776;2022-10-31T07:26:28;11.20;99.90
38428;DHT22;24211;49.980;19.776;2022-10-31T07:28:56;11.30;99.90
38428;DHT22;24211;49.980;19.776;2022-10-31T07:31:25;11.50;99.90
38428;DHT22;24211;49.980;19.776;2022-10-31T07:33:56;11.60;99.90
38428;DHT22;24211;49.980;19.776;2022-10-31T07:36:26;11.80;99.90
38428;DHT22;24211;49.980;19.776;2022-10-31T07:38:57;11.90;99.90
38428;DHT22;24211;49.980;19.776;2022-10-31T07:41:26;12.00;99.90
38428;DHT22;24211;49.980;19.776;2022-10-31T07:43:53;12.10;99.90
38428;DHT22;24211;49.980;19.776;2022-10-31T07:46:53;12.20;99.90
38428;DHT22;24211;49.980;19.776;2022-10-31T07:49:20;12.20;99.90
38428;DHT22;24211;49.980;19.776;2022-10-31T07:52:07;12.20;99.90
38428;DHT22;24211;49.980;19.776;2022-10-31T07:54:54;12.40;99.90
38428;DHT22;24211;49.980;19.776;2022-10-31T07:57:23;12.50;99.90
38428;DHT22;24211;49.980;19.776;2022-10-31T07:59:51;12.60;99.90
38428;DHT22;24211;49.980;19.776;2022-10-31T08:02:19;12.70;99.90
38428;DHT22;24211;49.980;19.776;2022-10-31T08:04:46;12.80;99.90
38428;DHT22;24211;49.980;19.776;2022-10-31T08:07:42;12.80;99.90
38428;DHT22;24211;49.980;19.776;2022-10-31T08:10:16;12.90;99.90
38428;DHT22;24211;49.980;19.776;2022-10-31T08:12:44;13.00;99.90
38428;DHT22;24211;49.980;19.776;2022-10-31T08:15:12;13.20;99.90
38428;DHT22;24211;49.980;19.776;2022-10-31T08:17:39;13.30;99.90
38428;DHT22;24211;49.980;19.776;2022-10-31T08:20:07;13.50;99.90
38428;DHT22;24211;49.980;19.776;2022-10-31T08:22:42;13.60;99.90
38428;DHT22;24211;49.980;19.776;2022-10-31T08:25:10;13.80;99.90
38428;DHT22;24211;49.980;19.776;2022-10-31T08:27:39;13.90;99.90
38428;DHT22;24211;49.980;19.776;2022-10-31T08:30:14;14.00;99.90
38428;DHT22;24211;49.980;19.776;2022-10-31T08:33:00;14.20;99.90
38428;DHT22;24211;49.980;19.776;2022-10-31T08:36:04;14.40;99.90
38428;DHT22;24211;49.980;19.776;2022-10-31T08:38:48;14.40;99.90
38428;DHT22;24211;49.980;19.776;2022-10-31T08:41:16;14.60;99.90
38428;DHT22;24211;49.980;19.776;2022-10-31T08:43:43;14.80;99.90
38428;DHT22;24211;49.980;19.776;2022-10-31T08:46:11;14.90;99.90
38428;DHT22;24211;49.980;19.776;2022-10-31T08:48:41;15.00;99.90
38428;DHT22;24211;49.980;19.776;2022-10-31T08:51:11;15.00;99.90
38428;DHT22;24211;49.980;19.776;2022-10-31T08:53:38;15.10;99.90
38428;DHT22;24211;49.980;19.776;2022-10-31T08:56:34;15.20;99.90
38428;DHT22;24211;49.980;19.776;2022-10-31T08:59:08;15.30;99.90
38428;DHT22;24211;49.980;19.776;2022-10-31T09:02:13;15.50;99.90
38428;DHT22;24211;49.980;19.776;2022-10-31T09:04:41;15.60;99.90
38428;DHT22;24211;49.980;19.776;2022-10-31T09:07:08;15.70;99.90
38428;DHT22;24211;49.980;19.776;2022-10-31T09:09:53;15.80;99.90
38428;DHT22;24211;49.980;19.776;2022-10-31T09:12:20;16.10;99.90
38428;DHT22;24211;49.980;19.776;2022-10-31T09:15:06;16.20;99.90
38428;DHT22;24211;49.980;19.776;2022-10-31T09:17:48;16.40;99.90
38428;DHT22;24211;49.980;19.776;2022-10-31T09:20:25;16.50;99.90
38428;DHT22;24211;49.980;19.776;2022-10-31T09:22:58;16.70;99.90
38428;DHT22;24211;49.980;19.776;2022-10-31T09:25:36;16.90;99.90
38428;DHT22;24211;49.980;19.776;2022-10-31T09:28:23;17.10;99.90
38428;DHT22;24211;49.980;19.776;2022-10-31T09:30:53;17.20;99.90
38428;DHT22;24211;49.980;19.776;2022-10-31T09:33:41;17.40;99.90
38428;DHT22;24211;49.980;19.776;2022-10-31T09:36:29;17.50;99.90
38428;DHT22;24211;49.980;19.776;2022-10-31T09:38:56;17.60;99.90
38428;DHT22;24211;49.980;19.776;2022-10-31T09:41:46;17.70;99.90
38428;DHT22;24211;49.980;19.776;2022-10-31T09:44:44;17.80;99.90
38428;DHT22;24211;49.980;19.776;2022-10-31T09:51:10;18.00;99.90
38428;DHT22;24211;49.980;19.776;2022-10-31T09:54:12;18.20;99.90
38428;DHT22;24211;49.980;19.776;2022-10-31T09:56:44;18.30;99.90
38428;DHT22;24211;49.980;19.776;2022-10-31T09:59:21;18.40;99.90
38428;DHT22;24211;49.980;19.776;2022-10-31T10:01:59;18.50;99.90
38428;DHT22;24211;49.980;19.776;2022-10-31T10:11:20;18.80;99.90
38428;DHT22;24211;49.980;19.776;2022-10-31T10:14:33;19.00;99.90
38428;DHT22;24211;49.980;19.776;2022-10-31T10:20:25;19.20;99.90
38428;DHT22;24211;49.980;19.776;2022-10-31T10:23:23;19.40;99.90
38428;DHT22;24211;49.980;19.776;2022-10-31T10:26:15;19.60;99.90
38428;DHT22;24211;49.980;19.776;2022-10-31T10:28:50;19.80;99.90
38428;DHT22;24211;49.980;19.776;2022-10-31T10:31:27;19.80;99.90
38428;DHT22;24211;49.980;19.776;2022-10-31T10:36:46;20.00;99.90
38428;DHT22;24211;49.980;19.776;2022-10-31T10:39:22;20.10;99.90
38428;DHT22;24211;49.980;19.776;2022-10-31T10:41:55;20.20;99.90
38428;DHT22;24211;49.980;19.776;2022-10-31T10:44:47;20.30;99.90
38428;DHT22;24211;49.980;19.776;2022-10-31T10:47:47;20.30;99.90
38428;DHT22;24211;49.980;19.776;2022-10-31T10:50:34;20.40;99.90
38428;DHT22;24211;49.980;19.776;2022-10-31T10:55:51;20.60;99.90
38428;DHT22;24211;49.980;19.776;2022-10-31T10:58:25;20.60;99.90
38428;DHT22;24211;49.980;19.776;2022-10-31T11:00:53;20.70;99.90
38428;DHT22;24211;49.980;19.776;2022-10-31T11:03:21;20.80;99.90
38428;DHT22;24211;49.980;19.776;2022-10-31T11:05:56;21.10;99.90
38428;DHT22;24211;49.980;19.776;2022-10-31T11:08:30;21.20;99.90
38428;DHT22;24211;49.980;19.776;2022-10-31T11:11:14;21.30;99.90
38428;DHT22;24211;49.980;19.776;2022-10-31T11:14:05;21.40;99.90
38428;DHT22;24211;49.980;19.776;2022-10-31T11:16:43;21.50;99.90
38428;DHT22;24211;49.980;19.776;2022-10-31T11:21:45;21.50;99.90
38428;DHT22;24211;49.980;19.776;2022-10-31T11:24:20;21.80;99.90
38428;DHT22;24211;49.980;19.776;2022-10-31T11:27:23;21.80;99.90
38428;DHT22;24211;49.980;19.776;2022-10-31T11:29:52;21.80;99.90
38428;DHT22;24211;49.980;19.776;2022-10-31T11:32:30;21.90;99.90
38428;DHT22;24211;49.980;19.776;2022-10-31T11:35:00;22.10;99.90
38428;DHT22;24211;49.980;19.776;2022-10-31T11:37:33;22.20;99.90
38428;DHT22;24211;49.980;19.776;2022-10-31T11:40:16;22.20;99.90
38428;DHT22;24211;49.980;19.776;2022-10-31T11:42:48;22.50;99.90
38428;DHT22;24211;49.980;19.776;2022-10-31T11:45:33;22.60;99.90
38428;DHT22;24211;49.980;19.776;2022-10-31T11:48:02;22.60;99.90
38428;DHT22;24211;49.980;19.776;2022-10-31T11:50:48;22.80;99.90
38428;DHT22;24211;49.980;19.776;2022-10-31T11:53:30;23.00;99.90
38428;DHT22;24211;49.980;19.776;2022-10-31T11:56:13;22.90;99.90
38428;DHT22;24211;49.980;19.776;2022-10-31T11:58:42;23.00;99.90
38428;DHT22;24211;49.980;19.776;2022-10-31T12:01:25;23.20;99.90
38428;DHT22;24211;49.980;19.776;2022-10-31T12:04:04;23.20;99.90
38428;DHT22;24211;49.980;19.776;2022-10-31T12:06:39;23.20;99.90
38428;DHT22;24211;49.980;19.776;2022-10-31T12:09:24;23.20;99.90
38428;DHT22;24211;49.980;19.776;2022-10-31T12:18:38;23.40;99.90
38428;DHT22;24211;49.980;19.776;2022-10-31T12:21:04;23.50;99.90
38428;DHT22;24211;49.980;19.776;2022-10-31T12:23:56;23.60;99.90
38428;DHT22;24211;49.980;19.776;2022-10-31T12:26:39;23.80;99.90
38428;DHT22;24211;49.980;19.776;2022-10-31T12:29:31;23.90;99.90
38428;DHT22;24211;49.980;19.776;2022-10-31T12:35:33;24.00;99.90
38428;DHT22;24211;49.980;19.776;2022-10-31T12:41:43;24.10;99.90
38428;DHT22;24211;49.980;19.776;2022-10-31T12:44:54;24.10;99.90
38428;DHT22;24211;49.980;19.776;2022-10-31T12:47:49;24.20;99.90
38428;DHT22;24211;49.980;19.776;2022-10-31T12:51:05;24.40;99.90
38428;DHT22;24211;49.980;19.776;2022-10-31T12:56:53;24.40;99.90
38428;DHT22;24211;49.980;19.776;2022-10-31T12:59:43;24.40;99.90
38428;DHT22;24211;49.980;19.776;2022-10-31T13:02:28;24.40;99.90
38428;DHT22;24211;49.980;19.776;2022-10-31T13:05:39;24.50;99.90
38428;DHT22;24211;49.980;19.776;2022-10-31T13:08:15;24.50;99.90
38428;DHT22;24211;49.980;19.776;2022-10-31T13:10:50;24.40;99.90
38428;DHT22;24211;49.980;19.776;2022-10-31T13:13:40;24.40;99.90
38428;DHT22;24211;49.980;19.776;2022-10-31T13:16:20;24.40;99.90
38428;DHT22;24211;49.980;19.776;2022-10-31T13:18:57;24.30;99.90
38428;DHT22;24211;49.980;19.776;2022-10-31T13:21:35;24.20;99.90
38428;DHT22;24211;49.980;19.776;2022-10-31T13:24:13;24.10;99.90
38428;DHT22;24211;49.980;19.776;2022-10-31T13:26:53;24.10;99.90
38428;DHT22;24211;49.980;19.776;2022-10-31T13:29:29;24.10;99.90
38428;DHT22;24211;49.980;19.776;2022-10-31T13:32:04;24.00;99.90
38428;DHT22;24211;49.980;19.776;2022-10-31T13:34:50;24.00;99.90
38428;DHT22;24211;49.980;19.776;2022-10-31T13:37:51;23.90;99.90
38428;DHT22;24211;49.980;19.776;2022-10-31T13:40:55;23.80;99.90
38428;DHT22;24211;49.980;19.776;2022-10-31T13:44:15;23.80;99.90
38428;DHT22;24211;49.980;19.776;2022-10-31T13:46:23;23.80;99.90
38428;DHT22;24211;49.980;19.776;2022-10-31T13:48:52;23.80;99.90
38428;DHT22;24211;49.980;19.776;2022-10-31T13:51:31;23.80;99.90
38428;DHT22;24211;49.980;19.776;2022-10-31T13:54:06;23.70;99.90
38428;DHT22;24211;49.980;19.776;2022-10-31T13:56:52;23.60;99.90
38428;DHT22;24211;49.980;19.776;2022-10-31T13:59:24;23.60;99.90
38428;DHT22;24211;49.980;19.776;2022-10-31T14:02:02;23.50;99.90
38428;DHT22;24211;49.980;19.776;2022-10-31T14:04:53;23.40;99.90
38428;DHT22;24211;49.980;19.776;2022-10-31T14:07:25;23.30;99.90
38428;DHT22;24211;49.980;19.776;2022-10-31T14:10:02;23.20;99.90
38428;DHT22;24211;49.980;19.776;2022-10-31T14:12:40;23.20;99.90
38428;DHT22;24211;49.980;19.776;2022-10-31T14:20:40;23.00;99.90
38428;DHT22;24211;49.980;19.776;2022-10-31T14:29:21;22.80;99.90
38428;DHT22;24211;49.980;19.776;2022-10-31T14:31:54;22.70;99.90
38428;DHT22;24211;49.980;19.776;2022-10-31T14:34:33;22.60;99.90
38428;DHT22;24211;49.980;19.776;2022-10-31T14:38:18;22.60;99.90
38428;DHT22;24211;49.980;19.776;2022-10-31T14:52:14;22.20;99.90
38428;DHT22;24211;49.980;19.776;2022-10-31T14:54:50;22.10;99.90
38428;DHT22;24211;49.980;19.776;2022-10-31T14:57:29;22.00;99.90
38428;DHT22;24211;49.980;19.776;2022-10-31T15:00:03;21.90;99.90
38428;DHT22;24211;49.980;19.776;2022-10-31T15:02:45;21.80;99.90
38428;DHT22;24211;49.980;19.776;2022-10-31T15:05:20;21.70;99.90
38428;DHT22;24211;49.980;19.776;2022-10-31T15:07:56;21.70;99.90
38428;DHT22;24211;49.980;19.776;2022-10-31T15:10:29;21.50;99.90
38428;DHT22;24211;49.980;19.776;2022-10-31T15:13:17;21.50;99.90
38428;DHT22;24211;49.980;19.776;2022-10-31T15:15:49;21.40;99.90
38428;DHT22;24211;49.980;19.776;2022-10-31T15:18:23;21.30;99.90
38428;DHT22;24211;49.980;19.776;2022-10-31T15:20:54;21.20;99.90
38428;DHT22;24211;49.980;19.776;2022-10-31T15:23:26;21.10;99.90
38428;DHT22;24211;49.980;19.776;2022-10-31T15:26:03;21.00;99.90
38428;DHT22;24211;49.980;19.776;2022-10-31T15:28:32;20.80;99.90
38428;DHT22;24211;49.980;19.776;2022-10-31T15:31:00;20.70;99.90
38428;DHT22;24211;49.980;19.776;2022-10-31T15:33:40;20.60;99.90
38428;DHT22;24211;49.980;19.776;2022-10-31T15:36:22;20.50;99.90
38428;DHT22;24211;49.980;19.776;2022-10-31T15:38:56;20.40;99.90
38428;DHT22;24211;49.980;19.776;2022-10-31T15:41:57;20.30;99.90
38428;DHT22;24211;49.980;19.776;2022-10-31T15:44:30;20.20;99.90
38428;DHT22;24211;49.980;19.776;2022-10-31T15:47:15;20.10;99.90
38428;DHT22;24211;49.980;19.776;2022-10-31T15:49:55;20.00;99.90
38428;DHT22;24211;49.980;19.776;2022-10-31T15:52:43;19.90;99.90
38428;DHT22;24211;49.980;19.776;2022-10-31T15:55:18;19.80;99.90
38428;DHT22;24211;49.980;19.776;2022-10-31T15:57:52;19.80;99.90
38428;DHT22;24211;49.980;19.776;2022-10-31T16:00:31;19.70;99.90
38428;DHT22;24211;49.980;19.776;2022-10-31T16:03:22;19.60;99.90
38428;DHT22;24211;49.980;19.776;2022-10-31T16:05:54;19.50;99.90
38428;DHT22;24211;49.980;19.776;2022-10-31T16:13:35;19.30;99.90
38428;DHT22;24211;49.980;19.776;2022-10-31T16:16:13;19.20;99.90
38428;DHT22;24211;49.980;19.776;2022-10-31T16:19:05;19.20;99.90
38428;DHT22;24211;49.980;19.776;2022-10-31T16:21:43;19.10;99.90
38428;DHT22;24211;49.980;19.776;2022-10-31T16:24:28;19.00;99.90
38428;DHT22;24211;49.980;19.776;2022-10-31T16:27:04;18.90;99.90
38428;DHT22;24211;49.980;19.776;2022-10-31T16:29:43;18.90;99.90
38428;DHT22;24211;49.980;19.776;2022-10-31T16:32:31;18.80;99.90
38428;DHT22;24211;49.980;19.776;2022-10-31T16:37:39;18.60;99.90
38428;DHT22;24211;49.980;19.776;2022-10-31T16:40:11;18.50;99.90
38428;DHT22;24211;49.980;19.776;2022-10-31T16:42:41;18.50;99.90
38428;DHT22;24211;49.980;19.776;2022-10-31T16:45:21;18.40;99.90
38428;DHT22;24211;49.980;19.776;2022-10-31T16:47:51;18.30;99.90
38428;DHT22;24211;49.980;19.776;2022-10-31T16:50:25;18.20;99.90
38428;DHT22;24211;49.980;19.776;2022-10-31T16:52:53;18.20;99.90
38428;DHT22;24211;49.980;19.776;2022-10-31T16:55:46;18.10;99.90
38428;DHT22;24211;49.980;19.776;2022-10-31T16:58:23;18.10;99.90
38428;DHT22;24211;49.980;19.776;2022-10-31T17:00:52;18.00;99.90
38428;DHT22;24211;49.980;19.776;2022-10-31T17:03:20;17.90;99.90
38428;DHT22;24211;49.980;19.776;2022-10-31T17:05:48;17.80;99.90
38428;DHT22;24211;49.980;19.776;2022-10-31T17:08:15;17.80;99.90
38428;DHT22;24211;49.980;19.776;2022-10-31T17:10:43;17.70;99.90
38428;DHT22;24211;49.980;19.776;2022-10-31T17:13:17;17.60;99.90
38428;DHT22;24211;49.980;19.776;2022-10-31T17:15:53;17.60;99.90
38428;DHT22;24211;49.980;19.776;2022-10-31T17:18:22;17.50;99.90
38428;DHT22;24211;49.980;19.776;2022-10-31T17:20:58;17.40;99.90
38428;DHT22;24211;49.980;19.776;2022-10-31T17:23:27;17.40;99.90
38428;DHT22;24211;49.980;19.776;2022-10-31T17:25:55;17.30;99.90
38428;DHT22;24211;49.980;19.776;2022-10-31T17:28:23;17.30;99.90
38428;DHT22;24211;49.980;19.776;2022-10-31T17:30:56;17.20;99.90
38428;DHT22;24211;49.980;19.776;2022-10-31T17:33:24;17.20;99.90
38428;DHT22;24211;49.980;19.776;2022-10-31T17:35:51;17.10;99.90
38428;DHT22;24211;49.980;19.776;2022-10-31T17:38:18;17.00;99.90
38428;DHT22;24211;49.980;19.776;2022-10-31T17:40:46;17.00;99.90
38428;DHT22;24211;49.980;19.776;2022-10-31T17:43:14;16.90;99.90
38428;DHT22;24211;49.980;19.776;2022-10-31T17:45:41;16.80;99.90
38428;DHT22;24211;49.980;19.776;2022-10-31T17:48:10;16.80;99.90
38428;DHT22;24211;49.980;19.776;2022-10-31T17:50:38;16.70;99.90
38428;DHT22;24211;49.980;19.776;2022-10-31T17:53:06;16.70;99.90
38428;DHT22;24211;49.980;19.776;2022-10-31T17:55:33;16.60;99.90
38428;DHT22;24211;49.980;19.776;2022-10-31T17:58:04;16.60;99.90